Badan Meteorologi, Klimatologi, dan Geofisika

CUACA TERKINI BANDARA KUALANAMU

Jumat, 22 Januari 2021 14:01 UTC

Cuaca : Hujan ringan

Angin : (dari) Barat, 5.6 km/jam

Jarak Pandang : 2.5 km

Suhu : 24 °C

Waktu Pengamatan : 21:30 WIB

Selengkapnya>>>

DATA METEOROLOGI KUALANAMU

Data Metar Terbaru

WIMM 221430Z 28003KT 2500 -RA FEW016CB BKN017 24/23 Q1010 NOSIG=

WIMM 221400Z 24004KT 2500 BR FEW016CB SCT017 24/23 Q1010 NOSIG=

WIMM 221330Z 24006KT 4500 BR FEW016CB BKN017 24/23 Q1010 NOSIG=

WIMM 221300Z 22006KT 6000 FEW016CB BKN017 25/24 Q1009 NOSIG=

WIMM 221230Z 18006KT 6000 FEW016CB OVC017 25/25 Q1009 RERA NOSIG RMK CB TO SW=

WIMM 221200Z 22002KT 7000 -RA FEW016CB OVC017 25/25 Q1009 NOSIG RMK CB TO SW=

TAF WIMM 221100Z 2212/2312 VRB07KT 4000 -TSRA FEW016CB BKN017 BECMG 2302/2304 36010KT 9000 SCT017 =

Selengkapnya>>>

Data TAF Terbaru

TAF WIMM 221100Z 2212/2312 VRB07KT 4000 -TSRA FEW016CB BKN017 BECMG 2302/2304 36010KT 9000 SCT017 =

Selengkapnya>>>

CITRA SATELIT

Enhanced
Citra Satelit
Cloud Type
Citra Satelit IR
Hotspot
Citra Satelit
Sebaran Asap
Citra Satelit